createdAt,value
2023-02-23T00:01:18.980Z,29.92
2023-02-23T00:04:25.056Z,31.42
2023-02-23T00:07:30.492Z,30.65
2023-02-23T00:10:34.719Z,29.33
2023-02-23T00:13:40.701Z,30.08
2023-02-23T00:16:45.457Z,30.52
2023-02-23T00:19:50.418Z,31.40
2023-02-23T00:22:58.750Z,29.80
2023-02-23T00:26:04.555Z,31.20
2023-02-23T00:29:18.183Z,29.52
2023-02-23T00:32:24.056Z,29.30
2023-02-23T00:35:28.878Z,30.92
2023-02-23T00:38:36.081Z,30.38
2023-02-23T00:41:40.725Z,30.67
2023-02-23T00:44:47.516Z,30.70
2023-02-23T00:47:52.349Z,30.65
2023-02-23T00:51:05.822Z,31.08
2023-02-23T00:54:16.519Z,30.83
2023-02-23T00:57:23.393Z,30.38
2023-02-23T01:00:28.264Z,29.63
2023-02-23T01:03:32.873Z,29.70
2023-02-23T01:06:39.656Z,31.58
2023-02-23T01:09:44.278Z,30.52
2023-02-23T01:12:56.848Z,31.13
2023-02-23T01:19:15.963Z,24.73
2023-02-23T01:22:21.816Z,26.30
2023-02-23T01:25:28.539Z,27.20
2023-02-23T01:28:33.071Z,27.42
2023-02-23T01:31:42.769Z,29.52
2023-02-23T01:34:47.678Z,31.73
2023-02-23T01:37:52.045Z,29.60
2023-02-23T01:40:56.460Z,31.42
2023-02-23T01:44:06.743Z,30.63
2023-02-23T01:47:14.847Z,30.85
2023-02-23T01:50:19.887Z,30.13
2023-02-23T01:53:27.756Z,30.45
2023-02-23T01:56:43.419Z,31.63
2023-02-23T01:59:50.272Z,28.92
2023-02-23T02:02:55.102Z,29.75
2023-02-23T02:06:03.658Z,27.63
2023-02-23T02:09:17.178Z,27.15
2023-02-23T02:12:23.492Z,30.05
2023-02-23T02:15:38.680Z,30.80
2023-02-23T02:19:25.852Z,29.08
2023-02-23T02:23:20.270Z,33.53
2023-02-23T02:26:46.521Z,28.38
2023-02-23T02:30:34.379Z,27.90
2023-02-23T02:34:06.696Z,26.60
2023-02-23T02:37:43.281Z,26.35
2023-02-23T02:41:15.365Z,24.38
2023-02-23T02:44:59.144Z,26.40
2023-02-23T02:48:14.300Z,26.83
2023-02-23T02:51:35.507Z,28.33
2023-02-23T02:54:53.360Z,28.47
2023-02-23T02:57:59.161Z,28.73
2023-02-23T03:01:31.367Z,28.77
2023-02-23T03:04:54.501Z,26.50
2023-02-23T03:08:40.426Z,26.77
2023-02-23T03:12:21.990Z,26.30
2023-02-23T03:16:00.847Z,27.35
2023-02-23T03:19:36.872Z,25.75
2023-02-23T03:23:13.166Z,26.33
2023-02-23T03:27:15.273Z,26.40
2023-02-23T03:31:38.222Z,25.08
2023-02-23T03:35:23.686Z,22.65
2023-02-23T03:39:02.657Z,22.73
2023-02-23T03:42:33.280Z,23.50
2023-02-23T03:45:57.778Z,24.08
2023-02-23T03:49:25.952Z,24.60
2023-02-23T03:53:00.576Z,24.17
2023-02-23T03:56:27.489Z,24.27
2023-02-23T03:59:58.226Z,24.75
2023-02-23T04:03:23.779Z,23.80
2023-02-23T04:06:50.978Z,24.83
2023-02-23T04:10:13.787Z,25.42
2023-02-23T04:13:25.661Z,24.48
2023-02-23T04:16:31.979Z,24.38
2023-02-23T04:19:36.690Z,24.52
2023-02-23T04:22:41.347Z,23.35
2023-02-23T04:25:47.693Z,26.35
2023-02-23T04:28:52.991Z,25.40
2023-02-23T04:31:58.068Z,25.33
2023-02-23T04:35:02.307Z,25.50
2023-02-23T04:38:07.116Z,24.27
2023-02-23T04:41:11.820Z,24.10
2023-02-23T04:44:19.590Z,23.42
2023-02-23T04:47:24.644Z,24.05
2023-02-23T04:50:31.599Z,24.67
2023-02-23T04:53:39.348Z,24.63
2023-02-23T04:56:43.771Z,25.55
2023-02-23T04:59:48.174Z,25.70
2023-02-23T05:02:52.557Z,25.30
2023-02-23T05:05:56.982Z,25.70
2023-02-23T05:09:03.224Z,24.63
2023-02-23T05:12:08.377Z,24.77
2023-02-23T05:15:13.035Z,27.23
2023-02-23T05:18:17.930Z,26.75
2023-02-23T05:21:22.356Z,27.20
2023-02-23T05:24:26.547Z,27.67
2023-02-23T05:27:31.927Z,26.52
2023-02-23T05:30:37.105Z,25.40
2023-02-23T05:33:45.736Z,26.55
2023-02-23T05:36:50.743Z,24.45
2023-02-23T05:39:55.434Z,25.40
2023-02-23T05:43:00.732Z,24.00
2023-02-23T05:46:19.788Z,23.90
2023-02-23T05:49:24.536Z,23.73
2023-02-23T05:52:29.244Z,24.55
2023-02-23T05:55:35.671Z,25.92
2023-02-23T05:58:40.098Z,22.83
2023-02-23T06:01:45.135Z,25.33
2023-02-23T06:04:49.737Z,25.15
2023-02-23T06:07:54.391Z,23.58
2023-02-23T06:10:59.209Z,22.15
2023-02-23T06:14:04.048Z,23.02
2023-02-23T06:17:08.911Z,23.50
2023-02-23T06:20:14.704Z,22.25
2023-02-23T06:23:19.151Z,23.33
2023-02-23T06:26:23.566Z,23.23
2023-02-23T06:29:28.342Z,23.38
2023-02-23T06:32:33.020Z,22.55
2023-02-23T06:35:40.300Z,22.25
2023-02-23T06:38:45.669Z,22.63
2023-02-23T06:41:50.256Z,24.90
2023-02-23T06:44:54.630Z,24.15
2023-02-23T06:48:00.920Z,23.55
2023-02-23T06:51:05.722Z,24.35
2023-02-23T06:54:10.273Z,24.33
2023-02-23T06:57:15.214Z,23.42
2023-02-23T07:00:20.690Z,23.30
2023-02-23T07:03:26.233Z,21.65
2023-02-23T07:06:31.416Z,22.20
2023-02-23T07:09:36.022Z,23.30
2023-02-23T07:12:40.663Z,22.55
2023-02-23T07:15:45.695Z,23.23
2023-02-23T07:18:50.637Z,24.83
2023-02-23T07:21:55.426Z,24.60
2023-02-23T07:25:00.098Z,24.70
2023-02-23T07:28:05.045Z,22.73
2023-02-23T07:31:09.912Z,22.20
2023-02-23T07:34:14.504Z,22.45
2023-02-23T07:37:18.897Z,21.30
2023-02-23T07:40:23.649Z,21.80
2023-02-23T07:43:27.862Z,22.40
2023-02-23T07:46:32.829Z,21.05
2023-02-23T07:49:37.689Z,20.90
2023-02-23T07:52:43.800Z,20.67
2023-02-23T07:55:57.215Z,19.45
2023-02-23T07:59:02.408Z,20.75
2023-02-23T08:02:07.811Z,20.60
2023-02-23T08:05:12.650Z,19.95
2023-02-23T08:08:17.413Z,18.77
2023-02-23T08:11:22.457Z,19.92
2023-02-23T08:14:27.437Z,20.15
2023-02-23T08:17:32.279Z,19.92
2023-02-23T08:20:40.342Z,20.50
2023-02-23T08:23:45.136Z,23.02
2023-02-23T08:26:50.425Z,20.10
2023-02-23T08:29:58.227Z,19.98
2023-02-23T08:33:03.085Z,19.75
2023-02-23T08:36:08.616Z,19.73
2023-02-23T08:39:13.384Z,20.67
2023-02-23T08:42:18.163Z,21.63
2023-02-23T08:45:22.875Z,19.17
2023-02-23T08:48:28.007Z,18.65
2023-02-23T08:51:34.931Z,18.98
2023-02-23T08:54:39.570Z,19.55
2023-02-23T08:57:43.916Z,20.20
2023-02-23T09:00:48.473Z,20.52
2023-02-23T09:03:53.342Z,18.30
2023-02-23T09:06:57.931Z,18.70
2023-02-23T09:10:02.595Z,20.17
2023-02-23T09:13:07.461Z,18.50
2023-02-23T09:16:11.939Z,18.27
2023-02-23T09:19:16.705Z,19.33
2023-02-23T09:22:21.414Z,19.27
2023-02-23T09:25:29.165Z,20.08
2023-02-23T09:28:35.430Z,17.88
2023-02-23T09:31:40.277Z,18.58
2023-02-23T09:34:44.941Z,18.85
2023-02-23T09:37:52.541Z,21.67
2023-02-23T09:40:56.862Z,20.90
2023-02-23T09:44:16.119Z,21.58
2023-02-23T09:47:51.909Z,20.08
2023-02-23T09:50:59.762Z,19.58
2023-02-23T09:54:05.870Z,19.77
2023-02-23T09:57:29.212Z,19.50
2023-02-23T10:00:43.430Z,20.33
2023-02-23T10:04:11.793Z,21.00
2023-02-23T10:07:47.358Z,21.05
2023-02-23T10:11:07.231Z,21.20
2023-02-23T10:14:55.713Z,19.73
2023-02-23T10:18:46.808Z,19.02
2023-02-23T10:22:01.508Z,19.38
2023-02-23T10:25:22.733Z,19.80
2023-02-23T10:28:33.517Z,19.58
2023-02-23T10:31:45.262Z,18.95
2023-02-23T10:34:56.561Z,20.25
2023-02-23T10:38:03.194Z,19.25
2023-02-23T10:41:09.753Z,21.25
2023-02-23T10:44:32.648Z,18.90
2023-02-23T10:47:37.612Z,18.67
2023-02-23T10:50:45.742Z,19.42
2023-02-23T10:53:50.248Z,18.25
2023-02-23T10:56:55.002Z,18.50
2023-02-23T11:00:17.045Z,18.80
2023-02-23T11:03:38.944Z,19.95
2023-02-23T11:06:44.513Z,19.27
2023-02-23T11:09:51.263Z,19.80
2023-02-23T11:12:55.763Z,20.70
2023-02-23T11:16:19.741Z,23.83
2023-02-23T11:19:37.068Z,22.50
2023-02-23T11:22:42.545Z,22.67
2023-02-23T11:25:49.555Z,21.02
2023-02-23T11:28:59.785Z,19.48
2023-02-23T11:32:19.285Z,18.25
2023-02-23T11:35:23.850Z,18.08
2023-02-23T11:38:30.583Z,20.90
2023-02-23T11:41:37.293Z,19.38
2023-02-23T11:44:42.118Z,19.35
2023-02-23T11:47:53.145Z,19.13
2023-02-23T11:50:58.771Z,18.02
2023-02-23T11:54:06.071Z,19.98
2023-02-23T11:57:19.753Z,20.73
2023-02-23T12:00:28.212Z,18.60
2023-02-23T12:03:34.491Z,18.05
2023-02-23T12:06:41.700Z,18.70
2023-02-23T12:09:49.096Z,17.50
2023-02-23T12:13:07.417Z,15.45
2023-02-23T12:16:26.521Z,16.92
2023-02-23T12:19:42.785Z,15.52
2023-02-23T12:22:59.524Z,14.82
2023-02-23T12:26:20.438Z,15.35
2023-02-23T12:29:50.870Z,15.43
2023-02-23T12:33:13.416Z,15.23
2023-02-23T12:36:52.540Z,15.55
2023-02-23T12:40:09.587Z,17.05
2023-02-23T12:43:53.093Z,16.58
2023-02-23T12:47:07.317Z,15.57
2023-02-23T12:50:27.286Z,14.82
2023-02-23T12:53:39.862Z,13.57
2023-02-23T12:57:15.177Z,14.57
2023-02-23T13:00:58.310Z,12.98
2023-02-23T13:04:51.385Z,14.05
2023-02-23T13:08:22.138Z,12.63
2023-02-23T13:11:45.092Z,12.27
2023-02-23T13:15:19.693Z,13.32
2023-02-23T13:18:45.941Z,13.32
2023-02-23T13:22:41.847Z,12.25
2023-02-23T13:26:25.670Z,10.45
2023-02-23T13:29:45.874Z,9.87
2023-02-23T13:32:50.630Z,10.35
2023-02-23T13:35:55.986Z,10.95
2023-02-23T13:39:31.181Z,10.40
2023-02-23T13:43:13.663Z,9.07
2023-02-23T13:46:52.305Z,10.10
2023-02-23T13:50:07.564Z,8.88
2023-02-23T13:53:41.696Z,8.43
2023-02-23T13:56:57.616Z,8.73
2023-02-23T14:00:02.706Z,8.40
2023-02-23T14:03:26.492Z,8.50
2023-02-23T14:06:34.886Z,8.43
2023-02-23T14:09:59.465Z,7.32
2023-02-23T14:13:32.780Z,10.05
2023-02-23T14:16:37.734Z,8.90
2023-02-23T14:20:13.284Z,7.95
2023-02-23T14:23:22.397Z,9.23
2023-02-23T14:26:29.880Z,8.80
2023-02-23T14:29:42.028Z,8.80
2023-02-23T14:32:49.974Z,8.98
2023-02-23T14:35:54.868Z,9.00
2023-02-23T14:39:08.024Z,7.95
2023-02-23T14:42:24.249Z,8.30
2023-02-23T14:45:34.079Z,8.60
2023-02-23T14:48:42.531Z,8.20
2023-02-23T14:51:53.832Z,8.10
2023-02-23T14:55:23.855Z,7.82
2023-02-23T14:58:35.310Z,8.45
2023-02-23T15:01:40.180Z,8.88
2023-02-23T15:04:45.740Z,8.50
2023-02-23T15:07:52.045Z,9.10
2023-02-23T15:11:04.818Z,7.57
2023-02-23T15:14:26.826Z,8.18
2023-02-23T15:17:34.185Z,8.05
2023-02-23T15:20:41.310Z,7.85
2023-02-23T15:23:49.455Z,8.35
2023-02-23T15:26:58.164Z,7.68
2023-02-23T15:30:31.731Z,7.50
2023-02-23T15:33:37.393Z,8.48
2023-02-23T15:36:47.165Z,6.60
2023-02-23T15:39:59.229Z,8.32
2023-02-23T15:43:04.195Z,7.78
2023-02-23T15:46:17.967Z,8.07
2023-02-23T15:49:26.078Z,8.18
2023-02-23T15:52:35.026Z,7.72
2023-02-23T15:55:43.068Z,8.00
2023-02-23T15:58:57.288Z,8.50
2023-02-23T16:02:14.105Z,8.02
2023-02-23T16:05:22.860Z,8.00
2023-02-23T16:08:29.582Z,7.97
2023-02-23T16:11:36.644Z,6.72
2023-02-23T16:14:54.006Z,8.23
2023-02-23T16:18:15.841Z,8.48
2023-02-23T16:21:24.976Z,8.20
2023-02-23T16:24:29.737Z,7.70
2023-02-23T16:27:34.205Z,8.68
2023-02-23T16:30:51.290Z,8.20
2023-02-23T16:33:59.935Z,8.15
2023-02-23T16:37:18.020Z,8.57
2023-02-23T16:40:22.637Z,8.20
2023-02-23T16:43:28.832Z,7.78
2023-02-23T16:47:02.705Z,8.27
2023-02-23T16:50:21.245Z,8.63
2023-02-23T16:53:26.353Z,8.82
2023-02-23T16:56:31.636Z,9.15
2023-02-23T16:59:36.144Z,10.35
2023-02-23T17:02:41.398Z,9.30
2023-02-23T17:05:47.342Z,11.70
2023-02-23T17:08:58.125Z,11.80
2023-02-23T17:12:03.106Z,13.75
2023-02-23T17:15:17.264Z,11.27
2023-02-23T17:21:31.759Z,7.93
2023-02-23T17:24:36.694Z,6.55
2023-02-23T17:27:41.164Z,5.22
2023-02-23T17:30:46.350Z,4.53
2023-02-23T17:33:50.874Z,3.47
2023-02-23T17:36:55.477Z,3.55
2023-02-23T17:40:00.327Z,4.00
2023-02-23T17:43:07.918Z,3.90
2023-02-23T17:46:13.936Z,4.25
2023-02-23T17:49:18.784Z,4.65
2023-02-23T17:52:24.124Z,4.18
2023-02-23T17:55:28.849Z,3.53
2023-02-23T17:58:33.871Z,4.45
2023-02-23T18:01:39.204Z,4.15
2023-02-23T18:04:44.279Z,3.53
2023-02-23T18:07:49.381Z,3.30
2023-02-23T18:10:55.758Z,3.92
2023-02-23T18:14:03.795Z,3.92
2023-02-23T18:17:09.250Z,4.55
2023-02-23T18:20:15.250Z,4.30
2023-02-23T18:23:21.031Z,3.95
2023-02-23T18:26:25.547Z,4.40
2023-02-23T18:29:34.001Z,3.00
2023-02-23T18:32:38.611Z,2.80
2023-02-23T18:35:45.662Z,4.57
2023-02-23T18:38:50.737Z,3.20
2023-02-23T18:41:55.557Z,3.38
2023-02-23T18:45:00.304Z,3.58
2023-02-23T18:48:10.084Z,2.45
2023-02-23T18:51:14.711Z,3.50
2023-02-23T18:54:19.502Z,3.47
2023-02-23T18:57:25.526Z,3.28
2023-02-23T19:00:34.004Z,3.78
2023-02-23T19:03:38.916Z,2.60
2023-02-23T19:06:45.216Z,2.72
2023-02-23T19:09:51.862Z,3.45
2023-02-23T19:12:56.937Z,3.60
2023-02-23T19:16:07.195Z,3.20
2023-02-23T19:19:11.757Z,2.83
2023-02-23T19:22:16.473Z,2.85
2023-02-23T19:25:21.510Z,2.95
2023-02-23T19:28:27.265Z,3.45
2023-02-23T19:31:32.331Z,3.25
2023-02-23T19:34:37.202Z,2.65
2023-02-23T19:37:50.530Z,2.42
2023-02-23T19:40:55.714Z,2.28
2023-02-23T19:44:00.266Z,2.75
2023-02-23T19:47:04.865Z,2.40
2023-02-23T19:50:18.999Z,2.22
2023-02-23T19:53:23.736Z,2.45
2023-02-23T19:56:29.063Z,2.03
2023-02-23T19:59:33.782Z,2.30
2023-02-23T20:02:42.678Z,2.95
2023-02-23T20:05:47.213Z,2.33
2023-02-23T20:08:55.051Z,2.28
2023-02-23T20:11:59.711Z,2.67
2023-02-23T20:15:05.009Z,3.00
2023-02-23T20:18:10.749Z,2.17
2023-02-23T20:21:19.848Z,2.15
2023-02-23T20:24:24.493Z,2.70
2023-02-23T20:27:30.002Z,2.80
2023-02-23T20:30:34.814Z,2.30
2023-02-23T20:33:39.791Z,2.90
2023-02-23T20:36:45.737Z,2.70
2023-02-23T20:39:50.389Z,2.33
2023-02-23T20:42:54.888Z,2.17
2023-02-23T20:46:00.925Z,2.30
2023-02-23T20:49:11.774Z,1.92
2023-02-23T20:52:16.192Z,2.30
2023-02-23T20:55:21.175Z,2.28
2023-02-23T20:58:25.596Z,1.98
2023-02-23T21:01:31.707Z,3.35
2023-02-23T21:04:38.144Z,1.80
2023-02-23T21:07:42.935Z,2.15
2023-02-23T21:10:48.802Z,2.33
2023-02-23T21:13:53.895Z,2.00
2023-02-23T21:16:58.221Z,2.20
2023-02-23T21:20:05.750Z,2.55
2023-02-23T21:23:10.445Z,2.30
2023-02-23T21:26:15.857Z,2.55
2023-02-23T21:29:23.967Z,2.92
2023-02-23T21:32:32.353Z,2.60
2023-02-23T21:35:38.439Z,2.08
2023-02-23T21:38:44.888Z,1.77
2023-02-23T21:41:49.532Z,1.80
2023-02-23T21:44:54.287Z,2.38
2023-02-23T21:47:59.074Z,2.65
2023-02-23T21:51:06.942Z,1.50
2023-02-23T21:54:11.988Z,1.48
2023-02-23T21:57:16.735Z,2.30
2023-02-23T22:00:21.729Z,2.90
2023-02-23T22:03:27.337Z,2.35
2023-02-23T22:06:40.708Z,2.42
2023-02-23T22:09:45.491Z,1.92
2023-02-23T22:12:56.964Z,1.92
2023-02-23T22:16:02.023Z,1.92
2023-02-23T22:19:07.597Z,1.52
2023-02-23T22:22:13.066Z,2.78
2023-02-23T22:25:20.312Z,2.58
2023-02-23T22:28:25.979Z,1.60
2023-02-23T22:31:31.132Z,1.35
2023-02-23T22:34:35.694Z,1.80
2023-02-23T22:37:41.033Z,1.83
2023-02-23T22:40:47.931Z,2.00
2023-02-23T22:43:52.883Z,1.75
2023-02-23T22:46:57.739Z,1.45
2023-02-23T22:50:06.252Z,1.17
2023-02-23T22:53:11.793Z,1.67
2023-02-23T22:56:16.900Z,1.20
2023-02-23T22:59:21.703Z,2.22
2023-02-23T23:02:32.350Z,1.60
2023-02-23T23:05:37.552Z,1.63
2023-02-23T23:08:45.290Z,1.50
2023-02-23T23:11:52.550Z,1.70
2023-02-23T23:15:01.301Z,1.80
2023-02-23T23:18:09.041Z,1.70
2023-02-23T23:21:21.682Z,1.70
2023-02-23T23:24:26.741Z,1.38
2023-02-23T23:27:33.377Z,1.90
2023-02-23T23:30:38.480Z,1.88
2023-02-23T23:33:47.754Z,1.65
2023-02-23T23:36:53.404Z,1.52
2023-02-23T23:40:02.074Z,1.65
2023-02-23T23:43:07.784Z,1.98
2023-02-23T23:46:22.646Z,1.75
2023-02-23T23:49:27.582Z,1.30
2023-02-23T23:52:35.369Z,1.65
2023-02-23T23:55:39.790Z,1.02
2023-02-23T23:58:44.480Z,1.63
